Terminal Aerodrome Forecast
Issued by NWS

Home | Current Version | Previous Version | Text Only | Print | Product List | Glossary On
Versions: 1 2 3 4 5 6 7 8 9 10 11 12
000
FTAK31 PAFA 271121
TAFAOR
TAF
PAOR 271121Z 2712/2812 00000KT P6SM BKN100
     FM272000 13005KT P6SM VCSH SCT050 BKN100
     FM272200 VRB05KT P6SM FEW050 BKN100=

USA.gov is the U.S. government's official web portal to all federal, state and local government web resources and services.